Time;durP1;ratioP1;P1;durP2;ratioP2;P2;SDS_P1;SDS_P2;PMS_P1;PMS_P2;Temp;Humidity;BMP_temperature;BMP_pressure;BME280_temperature;BME280_humidity;BME280_pressure;Samples;Min_cycle;Max_cycle;Signal;HPM_P1;HPM_P2
2023/10/08 00:01:16;;;;;;;244.50;75.90;;;;;;;;;;4976103;28;20782;-47
2023/10/08 00:03:48;;;;;;;244.13;76.10;;;;;;;;;;4972431;28;20780;-47
2023/10/08 00:06:14;;;;;;;246.37;78.47;;;;;;;;;;4974416;28;20414;-49
2023/10/08 00:08:40;;;;;;;245.73;77.33;;;;;;;;;;4977639;28;20554;-50
2023/10/08 00:11:10;;;;;;;248.03;82.23;;;;;;;;;;4973086;28;20405;-48
2023/10/08 00:13:39;;;;;;;246.97;79.57;;;;;;;;;;4974579;28;20928;-48
2023/10/08 00:16:09;;;;;;;245.23;77.87;;;;;;;;;;4979559;28;20447;-49
2023/10/08 00:18:35;;;;;;;247.53;81.03;;;;;;;;;;4981807;28;20532;-48
2023/10/08 00:23:41;;;;;;;249.83;82.83;;;;;;;;;;4976535;28;20425;-47
2023/10/08 00:26:08;;;;;;;243.17;77.77;;;;;;;;;;4978594;28;20409;-48
2023/10/08 00:28:34;;;;;;;242.47;75.57;;;;;;;;;;4977353;28;20473;-49
2023/10/08 00:31:11;;;;;;;248.70;81.37;;;;;;;;;;4978717;28;20410;-48
2023/10/08 00:33:37;;;;;;;243.00;74.73;;;;;;;;;;4981416;28;20445;-48
2023/10/08 00:36:20;;;;;;;245.27;77.47;;;;;;;;;;4983093;28;20412;-51
2023/10/08 00:38:51;;;;;;;245.80;77.63;;;;;;;;;;4977019;28;20474;-48
2023/10/08 00:41:21;;;;;;;243.40;75.63;;;;;;;;;;4977989;28;20417;-48
2023/10/08 00:43:48;;;;;;;243.57;75.93;;;;;;;;;;4979506;28;20449;-49
2023/10/08 00:46:23;;;;;;;247.77;81.17;;;;;;;;;;4981385;28;20501;-48
2023/10/08 00:48:54;;;;;;;246.03;77.00;;;;;;;;;;4982155;28;20463;-49
2023/10/08 00:53:48;;;;;;;244.30;75.03;;;;;;;;;;4975511;28;20411;-48
2023/10/08 00:56:15;;;;;;;245.10;75.47;;;;;;;;;;4975868;28;20414;-49
2023/10/08 00:58:47;;;;;;;248.50;78.03;;;;;;;;;;4979368;28;20434;-49
2023/10/08 01:01:16;;;;;;;249.00;75.90;;;;;;;;;;4975111;28;20420;-48
2023/10/08 01:03:44;;;;;;;246.27;76.37;;;;;;;;;;4981626;28;20763;-48
2023/10/08 01:06:12;;;;;;;245.47;77.40;;;;;;;;;;4975525;28;20475;-48
2023/10/08 01:08:51;;;;;;;243.77;76.63;;;;;;;;;;4976329;28;20466;-48
2023/10/08 01:14:08;;;;;;;247.07;79.77;;;;;;;;;;4973936;28;20797;-49
2023/10/08 01:16:34;;;;;;;243.47;77.17;;;;;;;;;;4975468;28;20414;-48
2023/10/08 01:19:00;;;;;;;245.17;76.93;;;;;;;;;;4975295;28;20464;-49
2023/10/08 01:21:39;;;;;;;247.57;80.43;;;;;;;;;;4975433;28;20795;-47
2023/10/08 01:24:06;;;;;;;243.97;76.60;;;;;;;;;;4973379;28;20448;-49
2023/10/08 01:26:32;;;;;;;242.53;73.43;;;;;;;;;;4974850;28;20972;-48
2023/10/08 01:29:07;;;;;;;242.97;73.10;;;;;;;;;;4974844;28;20473;-47
2023/10/08 01:31:33;;;;;;;243.20;73.83;;;;;;;;;;4975102;28;20452;-48
2023/10/08 01:34:00;;;;;;;243.80;73.33;;;;;;;;;;4974868;28;20791;-47
2023/10/08 01:36:26;;;;;;;245.80;78.43;;;;;;;;;;4975249;28;20444;-48
2023/10/08 01:38:54;;;;;;;244.17;75.43;;;;;;;;;;4974982;28;20441;-48
2023/10/08 01:41:22;;;;;;;244.97;78.00;;;;;;;;;;4970941;28;20417;-47
2023/10/08 01:43:52;;;;;;;241.53;71.80;;;;;;;;;;4974752;28;20421;-49
2023/10/08 01:46:21;;;;;;;242.20;73.07;;;;;;;;;;4974957;28;20476;-47
2023/10/08 01:48:50;;;;;;;242.17;74.90;;;;;;;;;;4974804;28;20559;-48
2023/10/08 01:51:28;;;;;;;241.53;71.90;;;;;;;;;;4974631;28;20454;-48
2023/10/08 01:53:58;;;;;;;244.73;77.87;;;;;;;;;;4974426;28;20437;-48
2023/10/08 01:56:24;;;;;;;241.83;74.13;;;;;;;;;;4974928;28;20487;-48
2023/10/08 01:58:50;;;;;;;244.77;78.33;;;;;;;;;;4974654;28;20496;-49
2023/10/08 02:01:22;;;;;;;244.10;76.33;;;;;;;;;;4974691;28;20835;-48
2023/10/08 02:03:48;;;;;;;251.83;83.77;;;;;;;;;;4970520;28;20436;-49
2023/10/08 02:06:14;;;;;;;243.77;74.70;;;;;;;;;;4972628;28;20430;-48
2023/10/08 02:08:41;;;;;;;242.97;75.50;;;;;;;;;;4974208;28;20475;-47
2023/10/08 02:11:08;;;;;;;244.57;77.43;;;;;;;;;;4975522;28;20470;-48
2023/10/08 02:13:34;;;;;;;243.93;74.67;;;;;;;;;;4974167;28;20495;-47
2023/10/08 02:16:01;;;;;;;244.30;76.27;;;;;;;;;;4974330;28;20781;-48
2023/10/08 02:18:29;;;;;;;241.40;72.77;;;;;;;;;;4974388;28;20425;-48
2023/10/08 02:20:55;;;;;;;240.90;71.43;;;;;;;;;;4974138;28;20894;-48
2023/10/08 02:23:21;;;;;;;249.23;81.03;;;;;;;;;;4974016;28;20505;-49
2023/10/08 02:25:47;;;;;;;240.20;72.30;;;;;;;;;;4974089;28;20902;-49
2023/10/08 02:28:15;;;;;;;241.23;73.20;;;;;;;;;;4973883;28;20470;-47
2023/10/08 02:30:41;;;;;;;240.47;72.67;;;;;;;;;;4973981;28;20775;-49
2023/10/08 02:33:13;;;;;;;245.53;80.10;;;;;;;;;;4973911;28;20423;-48
2023/10/08 02:35:42;;;;;;;244.97;76.83;;;;;;;;;;4974011;28;20783;-49
2023/10/08 02:38:09;;;;;;;245.90;76.47;;;;;;;;;;4973149;28;20468;-48
2023/10/08 02:40:36;;;;;;;242.67;75.87;;;;;;;;;;4973710;28;20897;-48
2023/10/08 02:43:07;;;;;;;244.57;78.73;;;;;;;;;;4973759;28;20422;-48
2023/10/08 02:45:38;;;;;;;241.90;73.97;;;;;;;;;;4973748;28;20421;-48
2023/10/08 02:48:11;;;;;;;246.03;76.43;;;;;;;;;;4973636;28;20471;-50
2023/10/08 02:50:39;;;;;;;242.30;71.87;;;;;;;;;;4973613;28;20421;-48
2023/10/08 02:53:10;;;;;;;245.17;77.80;;;;;;;;;;4973543;28;20414;-49
2023/10/08 02:55:41;;;;;;;243.40;75.17;;;;;;;;;;4973530;28;20420;-48
2023/10/08 02:58:11;;;;;;;242.13;72.93;;;;;;;;;;4973542;28;20411;-49
2023/10/08 03:00:40;;;;;;;242.63;73.00;;;;;;;;;;4973551;28;20448;-48
2023/10/08 03:03:15;;;;;;;245.03;74.77;;;;;;;;;;4973416;28;20443;-47
2023/10/08 03:05:41;;;;;;;240.87;71.30;;;;;;;;;;4973365;28;20417;-48
2023/10/08 03:08:20;;;;;;;241.53;71.00;;;;;;;;;;4973076;28;20527;-48
2023/10/08 03:10:48;;;;;;;239.97;71.50;;;;;;;;;;4973375;28;20453;-48
2023/10/08 03:13:16;;;;;;;245.63;76.67;;;;;;;;;;4973184;28;20424;-48
2023/10/08 03:18:14;;;;;;;243.50;73.40;;;;;;;;;;4973447;28;20420;-48
2023/10/08 03:20:49;;;;;;;243.40;72.67;;;;;;;;;;4978443;28;20479;-48
2023/10/08 03:23:25;;;;;;;245.33;74.43;;;;;;;;;;4973053;28;20412;-49
2023/10/08 03:25:57;;;;;;;245.83;76.57;;;;;;;;;;4973504;28;20419;-49
2023/10/08 03:28:24;;;;;;;241.70;72.83;;;;;;;;;;4967353;28;20855;-49
2023/10/08 03:30:51;;;;;;;242.23;73.13;;;;;;;;;;4975853;28;20502;-48
2023/10/08 03:33:22;;;;;;;244.17;74.23;;;;;;;;;;4972879;28;20404;-47
2023/10/08 03:35:49;;;;;;;242.27;75.63;;;;;;;;;;4977318;28;20568;-48
2023/10/08 03:38:28;;;;;;;240.23;69.87;;;;;;;;;;4979636;28;20436;-48
2023/10/08 03:41:01;;;;;;;244.07;74.17;;;;;;;;;;4973181;28;20492;-47
2023/10/08 03:43:47;;;;;;;250.87;79.97;;;;;;;;;;4974712;28;20542;-48
2023/10/08 03:46:16;;;;;;;245.67;77.07;;;;;;;;;;4976418;28;20414;-48
2023/10/08 03:48:45;;;;;;;245.07;76.67;;;;;;;;;;4972694;28;20495;-49
2023/10/08 03:51:14;;;;;;;245.03;74.87;;;;;;;;;;4979294;28;20924;-49
2023/10/08 03:54:48;;;;;;;244.33;74.87;;;;;;;;;;4973059;28;20414;-48
2023/10/08 03:56:36;;;;;;;243.67;75.67;;;;;;;;;;4979049;28;20446;-49
2023/10/08 03:59:14;;;;;;;245.17;74.87;;;;;;;;;;4976090;28;20808;-49
2023/10/08 04:01:44;;;;;;;243.23;72.63;;;;;;;;;;4972575;28;20472;-48
2023/10/08 04:04:13;;;;;;;243.87;73.07;;;;;;;;;;4973472;28;20417;-49
2023/10/08 04:06:47;;;;;;;242.70;75.87;;;;;;;;;;4978059;28;20787;-49
2023/10/08 04:09:18;;;;;;;245.27;76.27;;;;;;;;;;4972586;28;20833;-49
2023/10/08 04:14:16;;;;;;;245.77;77.10;;;;;;;;;;4975763;28;20908;-49
2023/10/08 04:16:42;;;;;;;245.80;79.87;;;;;;;;;;4977725;28;20435;-48
2023/10/08 04:19:08;;;;;;;244.57;75.53;;;;;;;;;;4979056;28;20435;-49
2023/10/08 04:21:34;;;;;;;243.53;74.73;;;;;;;;;;4972745;28;20427;-49
2023/10/08 04:24:03;;;;;;;246.77;77.27;;;;;;;;;;4973980;28;20413;-47
2023/10/08 04:26:31;;;;;;;245.17;76.03;;;;;;;;;;4972738;28;20440;-48
2023/10/08 04:28:58;;;;;;;244.70;75.67;;;;;;;;;;4975335;28;20478;-49
2023/10/08 04:31:37;;;;;;;244.67;73.87;;;;;;;;;;4972458;28;20496;-48
2023/10/08 04:34:09;;;;;;;244.97;73.33;;;;;;;;;;4971950;28;20423;-49
2023/10/08 04:36:38;;;;;;;242.77;72.03;;;;;;;;;;4972616;28;20471;-48
2023/10/08 04:39:13;;;;;;;245.73;77.90;;;;;;;;;;4974064;28;20578;-48
2023/10/08 04:41:45;;;;;;;239.97;68.60;;;;;;;;;;4975724;28;20416;-47
2023/10/08 04:44:15;;;;;;;241.77;72.50;;;;;;;;;;4972222;28;20831;-47
2023/10/08 04:46:51;;;;;;;243.97;76.20;;;;;;;;;;4972385;28;20420;-48
2023/10/08 04:49:26;;;;;;;242.97;74.00;;;;;;;;;;4972325;28;20539;-48
2023/10/08 04:51:56;;;;;;;244.23;75.13;;;;;;;;;;4973677;28;20413;-47
2023/10/08 04:54:22;;;;;;;239.83;68.83;;;;;;;;;;4964968;28;20408;-48
2023/10/08 04:56:49;;;;;;;241.37;70.33;;;;;;;;;;4975585;28;20414;-48
2023/10/08 04:59:20;;;;;;;243.67;76.00;;;;;;;;;;4976993;28;20502;-49
2023/10/08 05:02:12;;;;;;;242.37;72.63;;;;;;;;;;4981082;28;20809;-48
2023/10/08 05:10:10;;;;;;;240.33;69.77;;;;;;;;;;4971684;28;20457;-48
2023/10/08 05:12:47;;;;;;;245.80;75.47;;;;;;;;;;4972943;28;20923;-49
2023/10/08 05:20:44;;;;;;;243.57;72.43;;;;;;;;;;4975278;28;20489;-48
2023/10/08 05:26:20;;;;;;;241.87;70.50;;;;;;;;;;4975572;28;20796;-49
2023/10/08 05:29:04;;;;;;;243.67;73.27;;;;;;;;;;4970618;28;20469;-49
2023/10/08 05:34:22;;;;;;;244.27;74.60;;;;;;;;;;4975082;28;20428;-48
2023/10/08 05:39:32;;;;;;;241.37;70.00;;;;;;;;;;4968368;28;20437;-48
2023/10/08 05:42:13;;;;;;;244.20;75.33;;;;;;;;;;4974993;28;20410;-48
2023/10/08 05:44:40;;;;;;;241.87;73.63;;;;;;;;;;4974776;28;20496;-48
2023/10/08 05:47:26;;;;;;;242.37;71.50;;;;;;;;;;4974877;28;20774;-48
2023/10/08 05:50:38;;;;;;;243.47;72.60;;;;;;;;;;4974764;28;20952;-48
2023/10/08 05:52:50;;;;;;;242.77;71.37;;;;;;;;;;4969772;28;20503;-48
2023/10/08 05:55:25;;;;;;;242.47;71.30;;;;;;;;;;4974618;28;20499;-49
2023/10/08 05:58:02;;;;;;;243.43;74.13;;;;;;;;;;4974581;28;20417;-48
2023/10/08 06:00:46;;;;;;;242.60;71.33;;;;;;;;;;4968201;28;20427;-49
2023/10/08 06:03:31;;;;;;;245.23;75.63;;;;;;;;;;4973857;28;20510;-48
2023/10/08 06:09:04;;;;;;;241.27;71.73;;;;;;;;;;4969739;28;20475;-49
2023/10/08 06:11:56;;;;;;;242.80;72.13;;;;;;;;;;4967587;28;20434;-48
2023/10/08 06:14:42;;;;;;;241.33;70.93;;;;;;;;;;4966503;28;20437;-47
2023/10/08 06:17:23;;;;;;;243.27;74.30;;;;;;;;;;4972962;28;20408;-48
2023/10/08 06:19:52;;;;;;;241.77;73.13;;;;;;;;;;4970571;28;20812;-48
2023/10/08 06:22:18;;;;;;;241.27;69.87;;;;;;;;;;4974283;28;20476;-48
2023/10/08 06:24:45;;;;;;;239.47;68.70;;;;;;;;;;4974014;28;20411;-48
2023/10/08 06:27:16;;;;;;;244.27;74.43;;;;;;;;;;4974102;28;20496;-49
2023/10/08 06:29:44;;;;;;;241.83;71.67;;;;;;;;;;4974116;28;20468;-48
2023/10/08 06:32:11;;;;;;;242.57;74.67;;;;;;;;;;4973940;28;20406;-48
2023/10/08 06:34:40;;;;;;;244.60;74.87;;;;;;;;;;4973847;28;20406;-49
2023/10/08 06:37:07;;;;;;;242.73;74.07;;;;;;;;;;4974034;28;20490;-48
2023/10/08 06:39:47;;;;;;;243.70;75.07;;;;;;;;;;4973760;28;20492;-47
2023/10/08 06:42:14;;;;;;;241.03;69.83;;;;;;;;;;4973965;28;20501;-49
2023/10/08 06:44:42;;;;;;;240.63;71.07;;;;;;;;;;4973757;28;20885;-48
2023/10/08 06:47:09;;;;;;;238.30;67.47;;;;;;;;;;4973796;28;20413;-47
2023/10/08 06:49:35;;;;;;;240.90;69.87;;;;;;;;;;4973526;28;20469;-48
2023/10/08 06:52:04;;;;;;;240.13;69.10;;;;;;;;;;4974241;28;20480;-48
2023/10/08 06:54:30;;;;;;;240.87;69.87;;;;;;;;;;4975381;28;20510;-49
2023/10/08 06:56:56;;;;;;;243.03;73.17;;;;;;;;;;4981733;28;20404;-48
2023/10/08 06:59:23;;;;;;;240.87;68.60;;;;;;;;;;4974998;28;20433;-49
2023/10/08 07:01:51;;;;;;;239.27;69.83;;;;;;;;;;4973538;28;20419;-48
2023/10/08 07:04:18;;;;;;;241.33;71.07;;;;;;;;;;4973512;28;20497;-49
2023/10/08 07:06:46;;;;;;;241.17;70.33;;;;;;;;;;4973443;28;20430;-49
2023/10/08 07:11:54;;;;;;;243.33;70.43;;;;;;;;;;4976127;28;20958;-48
2023/10/08 07:14:22;;;;;;;239.43;68.83;;;;;;;;;;4973116;28;20417;-49
2023/10/08 07:16:52;;;;;;;240.03;68.53;;;;;;;;;;4972697;28;20583;-48
2023/10/08 07:19:18;;;;;;;242.57;71.67;;;;;;;;;;4977084;28;20431;-47
2023/10/08 07:21:47;;;;;;;241.27;70.27;;;;;;;;;;4971548;28;20423;-49
2023/10/08 07:24:17;;;;;;;239.53;68.87;;;;;;;;;;4979756;28;20526;-48
2023/10/08 07:26:46;;;;;;;240.70;69.63;;;;;;;;;;4974132;28;20404;-49
2023/10/08 07:29:20;;;;;;;239.77;68.17;;;;;;;;;;4975779;28;20477;-49
2023/10/08 07:31:52;;;;;;;239.97;68.90;;;;;;;;;;4972961;28;20416;-48
2023/10/08 07:34:18;;;;;;;240.70;69.17;;;;;;;;;;4972851;28;20412;-49
2023/10/08 07:36:47;;;;;;;239.97;68.97;;;;;;;;;;4973667;28;20751;-47
2023/10/08 07:40:15;;;;;;;240.10;69.20;;;;;;;;;;4973000;28;20503;-48
2023/10/08 07:42:10;;;;;;;241.97;70.67;;;;;;;;;;4983398;28;20426;-48
2023/10/08 07:44:36;;;;;;;241.77;70.57;;;;;;;;;;4973165;28;20416;-47
2023/10/08 07:47:09;;;;;;;241.47;71.13;;;;;;;;;;4972862;28;20763;-47
2023/10/08 07:49:36;;;;;;;241.27;69.87;;;;;;;;;;4978928;28;20466;-47
2023/10/08 07:52:04;;;;;;;239.97;70.00;;;;;;;;;;4980623;28;20415;-46
2023/10/08 07:54:34;;;;;;;240.53;71.30;;;;;;;;;;4973889;28;20420;-48
2023/10/08 07:57:10;;;;;;;244.07;74.97;;;;;;;;;;4972840;28;20924;-47
2023/10/08 07:59:46;;;;;;;241.80;70.97;;;;;;;;;;4974959;28;20507;-46
2023/10/08 08:02:12;;;;;;;242.03;69.90;;;;;;;;;;4973653;28;20426;-47
2023/10/08 08:04:43;;;;;;;241.23;69.40;;;;;;;;;;4972607;28;20920;-47
2023/10/08 08:07:15;;;;;;;243.23;72.40;;;;;;;;;;4980313;28;20414;-47
2023/10/08 08:09:44;;;;;;;243.87;73.87;;;;;;;;;;4972345;28;20478;-48
2023/10/08 08:12:11;;;;;;;240.43;68.57;;;;;;;;;;4972676;28;20784;-48
2023/10/08 08:14:41;;;;;;;246.77;75.13;;;;;;;;;;4972429;28;20509;-47
2023/10/08 08:17:13;;;;;;;244.13;71.83;;;;;;;;;;4972665;28;20915;-47
2023/10/08 08:19:44;;;;;;;242.47;72.07;;;;;;;;;;4972470;28;20517;-46
2023/10/08 08:22:20;;;;;;;242.73;70.97;;;;;;;;;;4972759;28;20415;-47
2023/10/08 08:24:47;;;;;;;245.67;74.87;;;;;;;;;;4974249;28;20897;-47
2023/10/08 08:27:31;;;;;;;242.53;71.13;;;;;;;;;;4973334;28;20575;-47
2023/10/08 08:30:09;;;;;;;240.67;68.40;;;;;;;;;;4969345;28;20862;-47
2023/10/08 08:32:38;;;;;;;241.50;69.63;;;;;;;;;;4966819;28;20421;-48
2023/10/08 08:35:07;;;;;;;242.77;70.47;;;;;;;;;;4979969;28;20500;-46
2023/10/08 08:37:35;;;;;;;242.97;72.87;;;;;;;;;;4985457;28;20499;-46
2023/10/08 08:40:07;;;;;;;240.77;66.10;;;;;;;;;;4976038;28;20988;-47
2023/10/08 08:42:35;;;;;;;243.73;71.47;;;;;;;;;;4980328;28;20410;-47
2023/10/08 08:45:03;;;;;;;241.60;71.27;;;;;;;;;;4982069;28;20447;-48
2023/10/08 08:47:30;;;;;;;242.20;70.87;;;;;;;;;;4980250;28;20538;-48
2023/10/08 08:49:57;;;;;;;243.73;69.57;;;;;;;;;;4976943;28;20432;-48
2023/10/08 08:52:23;;;;;;;242.47;69.37;;;;;;;;;;4976007;28;20468;-47
2023/10/08 08:54:49;;;;;;;241.47;67.90;;;;;;;;;;4978326;28;21058;-47
2023/10/08 08:57:16;;;;;;;239.43;68.27;;;;;;;;;;4975347;28;20413;-47
2023/10/08 08:59:44;;;;;;;240.50;65.37;;;;;;;;;;4981601;28;20446;-47
2023/10/08 09:02:14;;;;;;;241.73;68.27;;;;;;;;;;4983051;28;20420;-47
2023/10/08 09:04:40;;;;;;;241.07;68.23;;;;;;;;;;4977293;28;20456;-45
2023/10/08 09:07:06;;;;;;;240.07;66.27;;;;;;;;;;4978204;28;20894;-45
2023/10/08 09:09:32;;;;;;;243.23;71.60;;;;;;;;;;4976504;28;20492;-47
2023/10/08 09:11:59;;;;;;;243.07;67.70;;;;;;;;;;4977717;28;20417;-45
2023/10/08 09:14:25;;;;;;;243.43;68.77;;;;;;;;;;4979437;28;20409;-46
2023/10/08 09:16:51;;;;;;;246.53;71.57;;;;;;;;;;4981020;28;20833;-46
2023/10/08 09:19:23;;;;;;;245.07;70.67;;;;;;;;;;4975703;28;20805;-48
2023/10/08 09:22:10;;;;;;;242.37;68.77;;;;;;;;;;4977835;28;20417;-46
2023/10/08 09:24:40;;;;;;;241.50;68.87;;;;;;;;;;4969577;28;20413;-46
2023/10/08 09:27:06;;;;;;;241.13;67.67;;;;;;;;;;4975021;28;20515;-46
2023/10/08 09:29:38;;;;;;;247.90;72.00;;;;;;;;;;4978347;28;20517;-46
2023/10/08 09:32:05;;;;;;;243.57;68.33;;;;;;;;;;4978073;28;20429;-47
2023/10/08 09:34:32;;;;;;;241.63;67.67;;;;;;;;;;4974990;28;20416;-47
2023/10/08 09:37:01;;;;;;;241.97;67.87;;;;;;;;;;4975030;28;20917;-45
2023/10/08 09:39:34;;;;;;;246.53;71.50;;;;;;;;;;4979119;28;20433;-47
2023/10/08 09:42:02;;;;;;;240.97;67.73;;;;;;;;;;4980917;28;20427;-46
2023/10/08 09:44:28;;;;;;;241.10;66.07;;;;;;;;;;4982162;28;20565;-45
2023/10/08 09:46:58;;;;;;;241.77;68.73;;;;;;;;;;4976031;28;20440;-46
2023/10/08 09:49:31;;;;;;;238.97;65.47;;;;;;;;;;4974648;28;20580;-47
2023/10/08 09:51:59;;;;;;;241.93;67.93;;;;;;;;;;4973531;28;20932;-45
2023/10/08 09:54:32;;;;;;;241.77;67.00;;;;;;;;;;4976519;28;20401;-46
2023/10/08 09:56:59;;;;;;;239.77;66.77;;;;;;;;;;4994341;28;20492;-46
2023/10/08 09:59:26;;;;;;;241.10;66.70;;;;;;;;;;4955321;28;20472;-47
2023/10/08 10:01:53;;;;;;;240.37;67.27;;;;;;;;;;4971986;28;20420;-46
2023/10/08 10:04:24;;;;;;;242.87;69.67;;;;;;;;;;4974340;28;20752;-45
2023/10/08 10:06:50;;;;;;;241.33;67.80;;;;;;;;;;4978617;28;20408;-45
2023/10/08 10:09:26;;;;;;;239.33;67.97;;;;;;;;;;4979846;28;20472;-46
2023/10/08 10:11:53;;;;;;;239.73;67.27;;;;;;;;;;4974403;28;20555;-47
2023/10/08 10:14:23;;;;;;;241.93;68.83;;;;;;;;;;4967226;28;20413;-45
2023/10/08 10:16:50;;;;;;;239.70;67.43;;;;;;;;;;4974399;28;20417;-46
2023/10/08 10:19:21;;;;;;;242.63;69.17;;;;;;;;;;4974277;28;20925;-46
2023/10/08 10:21:50;;;;;;;240.90;68.97;;;;;;;;;;4978384;28;20457;-46
2023/10/08 10:24:23;;;;;;;242.47;70.77;;;;;;;;;;4979703;28;20409;-46
2023/10/08 10:26:50;;;;;;;239.80;68.73;;;;;;;;;;4981403;28;20430;-47
2023/10/08 10:29:19;;;;;;;238.03;66.63;;;;;;;;;;4974821;28;20468;-45
2023/10/08 10:31:46;;;;;;;240.60;70.33;;;;;;;;;;4976455;28;20813;-46
2023/10/08 10:34:16;;;;;;;243.97;73.00;;;;;;;;;;4972115;28;20437;-46
2023/10/08 10:36:43;;;;;;;240.83;68.20;;;;;;;;;;4972884;28;20434;-47
2023/10/08 10:39:30;;;;;;;250.17;77.57;;;;;;;;;;4973188;28;20522;-47
2023/10/08 10:42:20;;;;;;;243.33;72.57;;;;;;;;;;4977825;28;20418;-46
2023/10/08 10:44:49;;;;;;;245.17;73.93;;;;;;;;;;4974993;28;20411;-46
2023/10/08 10:55:33;;;;;;;240.43;68.70;;;;;;;;;;4959511;28;20451;-45
2023/10/08 10:58:11;;;;;;;243.00;69.90;;;;;;;;;;4970102;28;20465;-46
2023/10/08 11:03:10;;;;;;;243.97;72.67;;;;;;;;;;4977027;28;20428;-48
2023/10/08 11:05:37;;;;;;;242.77;76.00;;;;;;;;;;4972458;28;20457;-46
2023/10/08 11:08:06;;;;;;;245.70;73.30;;;;;;;;;;4979774;28;21046;-45
2023/10/08 11:10:32;;;;;;;242.13;74.27;;;;;;;;;;4973888;28;20951;-46
2023/10/08 11:13:01;;;;;;;242.73;70.77;;;;;;;;;;4973352;28;20416;-47
2023/10/08 11:15:37;;;;;;;243.77;72.03;;;;;;;;;;4971485;28;20437;-47
2023/10/08 11:18:17;;;;;;;253.30;82.47;;;;;;;;;;4965763;28;20441;-46
2023/10/08 11:20:46;;;;;;;248.50;76.00;;;;;;;;;;4967054;28;20410;-46
2023/10/08 11:23:33;;;;;;;246.63;75.30;;;;;;;;;;4978230;28;20415;-46
2023/10/08 11:26:02;;;;;;;247.77;75.87;;;;;;;;;;4971270;28;21044;-47
2023/10/08 11:28:29;;;;;;;249.40;76.77;;;;;;;;;;4967811;28;20481;-47
2023/10/08 11:30:59;;;;;;;244.60;74.30;;;;;;;;;;4970706;28;20482;-47
2023/10/08 11:33:27;;;;;;;255.67;84.50;;;;;;;;;;4975664;28;20936;-46
2023/10/08 11:35:58;;;;;;;244.47;77.13;;;;;;;;;;4978544;28;20466;-47
2023/10/08 11:38:24;;;;;;;245.87;79.47;;;;;;;;;;4966376;28;20515;-47
2023/10/08 11:40:56;;;;;;;247.77;79.70;;;;;;;;;;4974798;28;20413;-46
2023/10/08 11:43:22;;;;;;;246.57;78.53;;;;;;;;;;4965319;28;20433;-46
2023/10/08 11:45:48;;;;;;;244.70;74.67;;;;;;;;;;4972880;28;20869;-47
2023/10/08 11:48:25;;;;;;;247.40;79.73;;;;;;;;;;4972811;28;20906;-46
2023/10/08 11:50:51;;;;;;;244.97;78.10;;;;;;;;;;4972824;28;20423;-47
2023/10/08 11:53:19;;;;;;;246.33;77.23;;;;;;;;;;4972980;28;20414;-46
2023/10/08 11:55:47;;;;;;;245.17;79.43;;;;;;;;;;4973843;28;20523;-47
2023/10/08 11:58:17;;;;;;;243.30;74.27;;;;;;;;;;4976506;28;20473;-45
2023/10/08 12:00:44;;;;;;;242.07;74.77;;;;;;;;;;4972919;28;20419;-47
2023/10/08 12:03:17;;;;;;;245.57;77.43;;;;;;;;;;4973765;28;20480;-46
2023/10/08 12:05:47;;;;;;;241.90;75.77;;;;;;;;;;4977711;28;20416;-48
2023/10/08 12:08:14;;;;;;;247.23;80.87;;;;;;;;;;4972931;28;20457;-46
2023/10/08 12:10:40;;;;;;;247.27;81.57;;;;;;;;;;4975296;28;20515;-46
2023/10/08 12:13:06;;;;;;;247.10;79.77;;;;;;;;;;4980344;28;20925;-46
2023/10/08 12:15:38;;;;;;;244.37;76.73;;;;;;;;;;4976438;28;20449;-47
2023/10/08 12:19:15;;;;;;;247.20;81.27;;;;;;;;;;4983449;28;20414;-47
2023/10/08 12:20:59;;;;;;;242.17;74.50;;;;;;;;;;4979831;28;20789;-46
2023/10/08 12:23:25;;;;;;;247.50;80.03;;;;;;;;;;4978179;28;20490;-47
2023/10/08 12:25:52;;;;;;;240.23;72.20;;;;;;;;;;4979802;28;20417;-47
2023/10/08 12:28:19;;;;;;;245.13;78.07;;;;;;;;;;4976666;28;20480;-47
2023/10/08 12:30:45;;;;;;;244.03;77.33;;;;;;;;;;4980919;28;20413;-46
2023/10/08 12:33:15;;;;;;;244.27;78.57;;;;;;;;;;4983121;28;20929;-46
2023/10/08 12:35:43;;;;;;;241.70;73.17;;;;;;;;;;4976486;28;20408;-46
2023/10/08 12:38:09;;;;;;;242.33;73.57;;;;;;;;;;4978034;28;20414;-46
2023/10/08 12:40:47;;;;;;;242.73;73.87;;;;;;;;;;4979665;28;20447;-47
2023/10/08 12:43:19;;;;;;;241.67;74.47;;;;;;;;;;4981151;28;20417;-48
2023/10/08 12:45:45;;;;;;;244.07;77.73;;;;;;;;;;4981753;28;20409;-46
2023/10/08 12:48:13;;;;;;;247.63;79.60;;;;;;;;;;4976747;28;20460;-47
2023/10/08 12:50:42;;;;;;;241.87;74.93;;;;;;;;;;4975823;28;20420;-47
2023/10/08 12:53:12;;;;;;;242.97;76.27;;;;;;;;;;4974977;28;20469;-47
2023/10/08 12:55:41;;;;;;;241.43;75.50;;;;;;;;;;4979234;28;20796;-46
2023/10/08 12:58:10;;;;;;;243.03;75.13;;;;;;;;;;4980842;28;20921;-46
2023/10/08 13:00:49;;;;;;;241.80;74.63;;;;;;;;;;4982540;28;20756;-47
2023/10/08 13:03:15;;;;;;;243.90;77.27;;;;;;;;;;4976073;28;20494;-48
2023/10/08 13:05:44;;;;;;;241.10;74.57;;;;;;;;;;4977491;28;20456;-46
2023/10/08 13:08:13;;;;;;;241.40;76.27;;;;;;;;;;4977930;28;20519;-46
2023/10/08 13:10:43;;;;;;;240.43;74.30;;;;;;;;;;4978657;28;20920;-47
2023/10/08 13:13:10;;;;;;;241.70;74.53;;;;;;;;;;4977461;28;20894;-47
2023/10/08 13:15:36;;;;;;;243.17;77.20;;;;;;;;;;4981112;28;20469;-47
2023/10/08 13:18:05;;;;;;;243.50;75.80;;;;;;;;;;4974453;28;20451;-47
2023/10/08 13:20:33;;;;;;;245.63;79.23;;;;;;;;;;4975403;28;20498;-46
2023/10/08 13:23:00;;;;;;;244.83;78.97;;;;;;;;;;4974785;28;20432;-46
2023/10/08 13:25:26;;;;;;;244.17;78.87;;;;;;;;;;4984540;28;20421;-46
2023/10/08 13:27:52;;;;;;;247.13;79.37;;;;;;;;;;4986608;28;20948;-46
2023/10/08 13:30:20;;;;;;;244.13;79.37;;;;;;;;;;4975322;28;20431;-46
2023/10/08 13:32:46;;;;;;;244.93;78.60;;;;;;;;;;4975314;28;20410;-46
2023/10/08 13:35:12;;;;;;;248.47;82.27;;;;;;;;;;4975177;28;20457;-46
2023/10/08 13:37:39;;;;;;;245.53;79.97;;;;;;;;;;4978558;28;20413;-46
2023/10/08 13:40:05;;;;;;;243.33;77.03;;;;;;;;;;4980082;28;20481;-47
2023/10/08 13:42:31;;;;;;;244.50;79.10;;;;;;;;;;4981642;28;20466;-47
2023/10/08 13:44:59;;;;;;;245.17;78.07;;;;;;;;;;4974954;28;20417;-46
2023/10/08 13:47:25;;;;;;;242.20;74.83;;;;;;;;;;4976668;28;20470;-46
2023/10/08 13:49:54;;;;;;;248.03;84.63;;;;;;;;;;4977733;28;21023;-46
2023/10/08 13:52:20;;;;;;;245.43;78.80;;;;;;;;;;4967728;28;20410;-46
2023/10/08 13:54:51;;;;;;;245.27;80.57;;;;;;;;;;4979111;28;20455;-46
2023/10/08 13:57:19;;;;;;;246.50;81.53;;;;;;;;;;4981348;28;20415;-47
2023/10/08 13:59:46;;;;;;;243.10;76.67;;;;;;;;;;4974740;28;20521;-45
2023/10/08 14:02:14;;;;;;;244.03;78.90;;;;;;;;;;4976359;28;20431;-46
2023/10/08 14:04:43;;;;;;;242.53;76.77;;;;;;;;;;4977942;28;20464;-46
2023/10/08 14:07:11;;;;;;;242.87;79.17;;;;;;;;;;4979496;28;20505;-46
2023/10/08 14:09:37;;;;;;;245.03;77.77;;;;;;;;;;4978337;28;20487;-46
2023/10/08 14:12:04;;;;;;;244.60;78.73;;;;;;;;;;4976685;28;20890;-46
2023/10/08 14:14:30;;;;;;;243.37;76.53;;;;;;;;;;4974228;28;20491;-46
2023/10/08 14:16:59;;;;;;;244.57;77.33;;;;;;;;;;4975953;28;20420;-46
2023/10/08 14:19:35;;;;;;;238.87;72.40;;;;;;;;;;4977834;28;20467;-46
2023/10/08 14:22:03;;;;;;;243.37;76.10;;;;;;;;;;4979222;28;20441;-46
2023/10/08 14:24:32;;;;;;;243.60;76.43;;;;;;;;;;4974115;28;20957;-47
2023/10/08 14:27:02;;;;;;;244.77;79.03;;;;;;;;;;4982074;28;20412;-46
2023/10/08 14:29:28;;;;;;;244.43;78.53;;;;;;;;;;4975504;28;20481;-47
2023/10/08 14:31:56;;;;;;;240.97;74.07;;;;;;;;;;4973160;28;20417;-47
2023/10/08 14:42:56;;;;;;;244.87;75.53;;;;;;;;;;4974217;28;20408;-46
2023/10/08 14:45:26;;;;;;;244.97;78.90;;;;;;;;;;4993230;28;20421;-46
2023/10/08 14:47:53;;;;;;;242.87;74.60;;;;;;;;;;4974256;28;20429;-46
2023/10/08 14:50:19;;;;;;;243.53;75.33;;;;;;;;;;4973738;28;20576;-46
2023/10/08 14:52:46;;;;;;;242.17;75.90;;;;;;;;;;4987100;28;20409;-46
2023/10/08 14:55:22;;;;;;;241.33;73.43;;;;;;;;;;5080746;28;20559;-48
2023/10/08 14:57:48;;;;;;;244.97;77.40;;;;;;;;;;5080159;28;20401;-47
2023/10/08 15:00:14;;;;;;;241.27;75.17;;;;;;;;;;5057225;28;20434;-47
2023/10/08 15:02:40;;;;;;;241.80;73.77;;;;;;;;;;5066097;28;20466;-47
2023/10/08 15:05:06;;;;;;;240.83;72.63;;;;;;;;;;5049449;28;20534;-50
2023/10/08 15:07:33;;;;;;;242.57;77.80;;;;;;;;;;5068954;28;20403;-48
2023/10/08 15:10:00;;;;;;;244.17;75.57;;;;;;;;;;5065674;28;20425;-49
2023/10/08 15:12:26;;;;;;;240.47;71.40;;;;;;;;;;5062948;28;20405;-49
2023/10/08 15:14:53;;;;;;;243.07;74.23;;;;;;;;;;5057312;28;20410;-49
2023/10/08 15:17:19;;;;;;;239.03;69.87;;;;;;;;;;5057074;28;20426;-49